createdAt,value
2023-01-26T00:01:47.037Z,33.17
2023-01-26T00:04:15.002Z,35.95
2023-01-26T00:06:42.950Z,35.30
2023-01-26T00:09:14.389Z,37.13
2023-01-26T00:11:42.554Z,34.17
2023-01-26T00:14:11.763Z,32.40
2023-01-26T00:16:40.412Z,35.65
2023-01-26T00:19:08.345Z,38.35
2023-01-26T00:21:36.180Z,32.63
2023-01-26T00:24:04.967Z,31.70
2023-01-26T00:26:33.083Z,36.65
2023-01-26T00:29:04.016Z,37.55
2023-01-26T00:31:33.340Z,31.30
2023-01-26T00:34:01.237Z,35.65
2023-01-26T00:36:29.373Z,36.20
2023-01-26T00:38:57.714Z,35.70
2023-01-26T00:41:43.139Z,32.63
2023-01-26T00:44:11.048Z,30.70
2023-01-26T00:46:40.409Z,34.47
2023-01-26T00:49:08.495Z,39.53
2023-01-26T00:51:36.376Z,35.50
2023-01-26T00:54:05.420Z,36.10
2023-01-26T00:56:33.361Z,37.85
2023-01-26T00:59:01.240Z,33.85
2023-01-26T01:01:29.138Z,33.95
2023-01-26T01:03:58.347Z,32.55
2023-01-26T01:06:26.307Z,37.72
2023-01-26T01:08:54.299Z,34.80
2023-01-26T01:11:23.110Z,41.10
2023-01-26T01:13:52.460Z,36.10
2023-01-26T01:16:20.553Z,34.72
2023-01-26T01:18:48.528Z,33.90
2023-01-26T01:21:18.753Z,37.30
2023-01-26T01:23:47.409Z,35.83
2023-01-26T01:26:16.527Z,36.83
2023-01-26T01:28:45.477Z,32.38
2023-01-26T01:31:15.630Z,37.45
2023-01-26T01:33:43.640Z,37.83
2023-01-26T01:36:13.359Z,38.60
2023-01-26T01:38:43.439Z,37.15
2023-01-26T01:41:11.948Z,37.45
2023-01-26T01:43:40.120Z,39.03
2023-01-26T01:46:13.209Z,32.35
2023-01-26T01:48:48.737Z,35.92
2023-01-26T01:51:32.157Z,29.95
2023-01-26T01:54:04.467Z,34.30
2023-01-26T01:56:34.989Z,40.78
2023-01-26T01:59:05.142Z,43.55
2023-01-26T02:01:33.060Z,39.50
2023-01-26T02:04:02.890Z,33.00
2023-01-26T02:06:36.324Z,34.85
2023-01-26T02:09:06.860Z,37.15
2023-01-26T02:11:39.394Z,35.65
2023-01-26T02:14:10.671Z,33.35
2023-01-26T02:16:39.901Z,32.38
2023-01-26T02:19:21.119Z,37.42
2023-01-26T02:21:51.262Z,30.27
2023-01-26T02:24:26.314Z,29.75
2023-01-26T02:26:55.864Z,31.15
2023-01-26T02:29:24.322Z,32.78
2023-01-26T02:31:53.642Z,31.33
2023-01-26T02:34:25.112Z,31.55
2023-01-26T02:36:59.878Z,34.00
2023-01-26T02:39:42.226Z,31.98
2023-01-26T02:42:29.620Z,34.38
2023-01-26T02:44:57.783Z,32.03
2023-01-26T02:47:25.726Z,36.60
2023-01-26T02:49:52.837Z,29.00
2023-01-26T02:52:23.886Z,33.45
2023-01-26T02:55:17.514Z,32.42
2023-01-26T02:57:47.209Z,39.78
2023-01-26T03:00:17.628Z,38.00
2023-01-26T03:02:47.635Z,36.72
2023-01-26T03:05:15.864Z,38.95
2023-01-26T03:07:43.974Z,48.10
2023-01-26T03:10:13.971Z,52.72
2023-01-26T03:12:41.942Z,47.85
2023-01-26T03:15:30.253Z,48.90
2023-01-26T03:18:35.509Z,45.75
2023-01-26T03:21:22.505Z,47.40
2023-01-26T03:24:08.330Z,45.53
2023-01-26T03:26:54.338Z,49.75
2023-01-26T03:29:22.973Z,48.47
2023-01-26T03:31:53.875Z,47.33
2023-01-26T03:34:22.355Z,48.42
2023-01-26T03:36:50.533Z,44.33
2023-01-26T03:39:37.851Z,46.25
2023-01-26T03:42:24.418Z,45.38
2023-01-26T03:45:10.083Z,46.78
2023-01-26T03:47:59.255Z,48.08
2023-01-26T03:50:45.844Z,44.88
2023-01-26T03:53:33.338Z,44.60
2023-01-26T03:56:21.959Z,53.80
2023-01-26T03:58:54.316Z,53.22
2023-01-26T04:01:27.703Z,48.22
2023-01-26T04:04:17.394Z,41.67
2023-01-26T04:07:06.722Z,39.65
2023-01-26T04:09:36.950Z,40.55
2023-01-26T04:12:05.481Z,44.47
2023-01-26T04:14:54.476Z,47.10
2023-01-26T04:17:42.980Z,42.10
2023-01-26T04:20:30.972Z,45.40
2023-01-26T04:22:58.927Z,45.15
2023-01-26T04:25:26.895Z,37.80
2023-01-26T04:27:57.316Z,40.38
2023-01-26T04:30:25.414Z,38.97
2023-01-26T04:32:53.378Z,40.17
2023-01-26T04:35:22.859Z,35.45
2023-01-26T04:37:51.014Z,38.20
2023-01-26T04:40:19.314Z,36.45
2023-01-26T04:42:47.434Z,32.88
2023-01-26T04:45:15.428Z,38.42
2023-01-26T04:47:45.138Z,38.50
2023-01-26T04:50:13.964Z,39.53
2023-01-26T04:52:43.415Z,33.58
2023-01-26T04:55:11.729Z,36.60
2023-01-26T04:57:42.258Z,34.17
2023-01-26T05:00:14.017Z,34.67
2023-01-26T05:02:42.453Z,36.58
2023-01-26T05:05:11.063Z,43.78
2023-01-26T05:07:39.803Z,33.75
2023-01-26T05:10:12.601Z,37.67
2023-01-26T05:12:55.396Z,35.83
2023-01-26T05:15:35.532Z,34.15
2023-01-26T05:18:14.468Z,42.88
2023-01-26T05:20:57.956Z,33.88
2023-01-26T05:23:31.801Z,34.83
2023-01-26T05:26:19.510Z,32.08
2023-01-26T05:28:57.494Z,29.75
2023-01-26T05:31:25.467Z,30.10
2023-01-26T05:33:54.493Z,34.88
2023-01-26T05:36:24.709Z,32.50
2023-01-26T05:38:52.895Z,32.97
2023-01-26T05:41:26.981Z,33.20
2023-01-26T05:44:13.499Z,30.52
2023-01-26T05:46:48.954Z,30.98
2023-01-26T05:49:16.890Z,33.28
2023-01-26T05:51:44.930Z,26.08
2023-01-26T05:54:13.031Z,30.08
2023-01-26T05:56:42.558Z,30.23
2023-01-26T05:59:10.670Z,27.30
2023-01-26T06:01:39.302Z,30.77
2023-01-26T06:04:09.231Z,30.50
2023-01-26T06:06:44.219Z,29.17
2023-01-26T06:09:25.786Z,26.58
2023-01-26T06:12:17.260Z,26.90
2023-01-26T06:14:57.201Z,30.40
2023-01-26T06:17:31.402Z,31.02
2023-01-26T06:20:02.418Z,33.55
2023-01-26T06:22:32.374Z,29.45
2023-01-26T06:25:00.817Z,27.55
2023-01-26T06:27:30.277Z,27.35
2023-01-26T06:30:00.314Z,28.35
2023-01-26T06:32:29.432Z,27.92
2023-01-26T06:34:57.378Z,28.60
2023-01-26T06:37:26.593Z,29.80
2023-01-26T06:40:02.740Z,28.85
2023-01-26T06:42:32.034Z,29.13
2023-01-26T06:45:00.158Z,28.08
2023-01-26T06:47:28.098Z,26.67
2023-01-26T06:49:56.066Z,22.75
2023-01-26T06:52:28.313Z,25.55
2023-01-26T06:55:01.327Z,18.08
2023-01-26T06:57:54.930Z,23.02
2023-01-26T07:00:49.736Z,24.38
2023-01-26T07:03:27.959Z,21.90
2023-01-26T07:05:55.833Z,19.13
2023-01-26T07:08:23.710Z,21.77
2023-01-26T07:10:52.066Z,22.02
2023-01-26T07:13:21.531Z,22.27
2023-01-26T07:15:49.526Z,21.60
2023-01-26T07:18:17.534Z,18.48
2023-01-26T07:20:45.448Z,22.75
2023-01-26T07:23:13.336Z,23.17
2023-01-26T07:25:44.497Z,22.33
2023-01-26T07:28:13.612Z,20.55
2023-01-26T07:30:42.992Z,21.30
2023-01-26T07:33:11.087Z,21.80
2023-01-26T07:35:39.092Z,23.73
2023-01-26T07:38:07.500Z,22.35
2023-01-26T07:40:35.588Z,19.90
2023-01-26T07:43:03.593Z,24.35
2023-01-26T07:45:54.227Z,28.80
2023-01-26T07:48:23.783Z,25.80
2023-01-26T07:50:52.625Z,24.23
2023-01-26T07:53:21.315Z,22.88
2023-01-26T07:55:49.867Z,23.73
2023-01-26T07:58:19.063Z,27.88
2023-01-26T08:00:47.714Z,27.33
2023-01-26T08:03:17.047Z,28.90
2023-01-26T08:05:45.659Z,28.10
2023-01-26T08:08:13.759Z,22.60
2023-01-26T08:10:41.693Z,26.92
2023-01-26T08:13:09.579Z,21.30
2023-01-26T08:15:37.596Z,20.92
2023-01-26T08:18:05.999Z,24.05
2023-01-26T08:20:36.351Z,21.88
2023-01-26T08:23:04.251Z,20.98
2023-01-26T08:25:32.927Z,20.45
2023-01-26T08:28:00.845Z,27.52
2023-01-26T08:30:28.752Z,18.55
2023-01-26T08:32:56.652Z,22.35
2023-01-26T08:35:24.567Z,20.20
2023-01-26T08:37:53.872Z,22.88
2023-01-26T08:40:21.762Z,24.65
2023-01-26T08:42:49.690Z,18.00
2023-01-26T08:45:17.677Z,24.00
2023-01-26T08:47:46.054Z,22.15
2023-01-26T08:50:14.249Z,20.55
2023-01-26T08:52:42.347Z,21.52
2023-01-26T08:55:12.463Z,18.17
2023-01-26T08:57:40.361Z,18.73
2023-01-26T09:00:09.729Z,21.95
2023-01-26T09:02:37.930Z,20.80
2023-01-26T09:05:06.727Z,25.40
2023-01-26T09:07:34.615Z,26.05
2023-01-26T09:10:02.519Z,23.15
2023-01-26T09:12:33.847Z,27.83
2023-01-26T09:15:01.747Z,24.05
2023-01-26T09:17:29.776Z,27.55
2023-01-26T09:19:57.673Z,27.45
2023-01-26T09:22:25.653Z,30.25
2023-01-26T09:24:53.625Z,26.48
2023-01-26T09:27:21.503Z,32.67
2023-01-26T09:29:50.827Z,35.08
2023-01-26T09:32:18.988Z,43.13
2023-01-26T09:34:46.907Z,31.40
2023-01-26T09:37:14.838Z,32.45
2023-01-26T09:39:42.949Z,35.70
2023-01-26T09:42:32.114Z,31.02
2023-01-26T09:45:16.967Z,29.42
2023-01-26T09:48:00.025Z,26.48
2023-01-26T09:50:31.731Z,28.52
2023-01-26T09:53:03.755Z,32.80
2023-01-26T09:55:31.797Z,27.80
2023-01-26T09:58:03.975Z,26.10
2023-01-26T10:00:36.756Z,29.70
2023-01-26T10:03:19.833Z,27.77
2023-01-26T10:05:53.031Z,28.42
2023-01-26T10:08:43.030Z,24.23
2023-01-26T10:11:17.223Z,17.17
2023-01-26T10:13:51.424Z,19.40
2023-01-26T10:16:24.313Z,15.70
2023-01-26T10:18:57.418Z,13.85
2023-01-26T10:21:30.209Z,15.65
2023-01-26T10:24:01.592Z,17.98
2023-01-26T10:26:33.235Z,12.15
2023-01-26T10:29:02.295Z,11.82
2023-01-26T10:31:34.179Z,18.52
2023-01-26T10:34:11.113Z,12.27
2023-01-26T10:36:41.185Z,15.27
2023-01-26T10:39:10.039Z,13.43
2023-01-26T10:41:39.202Z,10.90
2023-01-26T10:44:24.526Z,10.80
2023-01-26T10:47:07.240Z,10.73
2023-01-26T10:49:35.255Z,26.70
2023-01-26T10:52:08.924Z,22.92
2023-01-26T10:54:39.593Z,10.32
2023-01-26T10:57:18.212Z,10.45
2023-01-26T10:59:52.942Z,15.30
2023-01-26T11:02:28.609Z,23.73
2023-01-26T11:05:05.724Z,8.05
2023-01-26T11:07:35.698Z,52.88
2023-01-26T11:10:20.356Z,13.35
2023-01-26T11:12:48.540Z,11.90
2023-01-26T11:15:22.018Z,10.02
2023-01-26T11:18:00.715Z,9.07
2023-01-26T11:20:45.372Z,10.55
2023-01-26T11:23:25.656Z,9.88
2023-01-26T11:26:22.057Z,8.02
2023-01-26T11:29:01.663Z,9.60
2023-01-26T11:31:41.380Z,10.90
2023-01-26T11:34:25.683Z,9.13
2023-01-26T11:37:01.072Z,9.55
2023-01-26T11:39:36.682Z,9.15
2023-01-26T11:42:20.083Z,8.82
2023-01-26T11:44:59.494Z,8.05
2023-01-26T11:47:49.094Z,9.35
2023-01-26T11:50:29.588Z,8.70
2023-01-26T11:53:31.840Z,8.55
2023-01-26T11:56:19.831Z,12.77
2023-01-26T11:58:52.608Z,7.07
2023-01-26T12:01:28.778Z,7.65
2023-01-26T12:03:57.639Z,9.63
2023-01-26T12:06:32.703Z,10.15
2023-01-26T12:09:04.229Z,9.40
2023-01-26T12:11:38.864Z,11.13
2023-01-26T12:14:21.862Z,10.05
2023-01-26T12:17:17.097Z,10.90
2023-01-26T12:19:57.218Z,9.95
2023-01-26T12:22:33.913Z,10.48
2023-01-26T12:25:19.555Z,12.23
2023-01-26T12:27:54.383Z,10.70
2023-01-26T12:30:36.275Z,12.93
2023-01-26T12:33:04.487Z,10.32
2023-01-26T12:36:02.807Z,12.23
2023-01-26T12:38:42.722Z,13.65
2023-01-26T12:41:17.027Z,12.18
2023-01-26T12:43:57.987Z,13.18
2023-01-26T12:46:29.655Z,13.82
2023-01-26T12:49:03.176Z,15.23
2023-01-26T12:51:36.111Z,12.20
2023-01-26T12:54:13.165Z,10.70
2023-01-26T12:56:45.207Z,8.27
2023-01-26T12:59:39.157Z,11.90
2023-01-26T13:02:21.509Z,12.38
2023-01-26T13:04:51.317Z,9.85
2023-01-26T13:07:32.176Z,8.93
2023-01-26T13:10:24.682Z,12.80
2023-01-26T13:12:55.504Z,17.48
2023-01-26T13:15:25.022Z,8.70
2023-01-26T13:17:58.230Z,8.40
2023-01-26T13:20:29.834Z,12.23
2023-01-26T13:22:58.347Z,10.60
2023-01-26T13:25:32.888Z,13.20
2023-01-26T13:28:02.691Z,8.02
2023-01-26T13:30:42.996Z,8.20
2023-01-26T13:33:16.433Z,9.60
2023-01-26T13:35:46.141Z,7.93
2023-01-26T13:38:25.664Z,7.75
2023-01-26T13:40:55.348Z,9.00
2023-01-26T13:43:32.044Z,8.45
2023-01-26T13:46:14.450Z,6.72
2023-01-26T13:48:45.352Z,8.00
2023-01-26T13:51:17.409Z,114.70
2023-01-26T13:53:49.872Z,31.85
2023-01-26T13:56:28.096Z,13.38
2023-01-26T13:59:08.383Z,11.90
2023-01-26T14:01:42.652Z,8.70
2023-01-26T14:04:17.685Z,8.07
2023-01-26T14:06:50.415Z,7.32
2023-01-26T14:09:19.254Z,5.95
2023-01-26T14:11:57.550Z,9.25
2023-01-26T14:14:27.818Z,6.72
2023-01-26T14:16:57.954Z,6.22
2023-01-26T14:19:26.381Z,7.22
2023-01-26T14:21:56.002Z,6.93
2023-01-26T14:24:28.364Z,7.65
2023-01-26T14:26:57.708Z,7.10
2023-01-26T14:29:29.828Z,6.13
2023-01-26T14:31:59.470Z,8.70
2023-01-26T14:34:29.275Z,7.20
2023-01-26T14:37:08.543Z,7.68
2023-01-26T14:39:36.520Z,6.57
2023-01-26T14:42:06.533Z,6.97
2023-01-26T14:44:34.512Z,7.88
2023-01-26T14:47:08.086Z,7.07
2023-01-26T14:49:46.114Z,6.88
2023-01-26T14:52:23.843Z,8.02
2023-01-26T14:54:54.233Z,7.03
2023-01-26T14:57:26.502Z,8.90
2023-01-26T14:59:56.770Z,8.07
2023-01-26T15:02:26.915Z,6.25
2023-01-26T15:05:00.006Z,8.50
2023-01-26T15:07:36.898Z,8.18
2023-01-26T15:10:21.542Z,17.58
2023-01-26T15:12:59.531Z,10.40
2023-01-26T15:15:29.651Z,8.98
2023-01-26T15:18:06.677Z,8.57
2023-01-26T15:21:00.216Z,8.50
2023-01-26T15:23:30.506Z,9.63
2023-01-26T15:26:06.004Z,8.90
2023-01-26T15:28:36.357Z,9.40
2023-01-26T15:31:04.711Z,10.05
2023-01-26T15:33:41.259Z,7.65
2023-01-26T15:36:33.056Z,11.45
2023-01-26T15:39:03.962Z,8.68
2023-01-26T15:41:32.122Z,7.07
2023-01-26T15:44:01.866Z,8.20
2023-01-26T15:46:30.033Z,8.77
2023-01-26T15:48:58.095Z,9.15
2023-01-26T15:51:26.063Z,11.45
2023-01-26T15:53:53.999Z,7.95
2023-01-26T15:56:21.998Z,8.75
2023-01-26T15:58:49.967Z,8.60
2023-01-26T16:01:22.976Z,9.75
2023-01-26T16:03:51.872Z,10.15
2023-01-26T16:06:25.186Z,10.32
2023-01-26T16:08:53.457Z,11.63
2023-01-26T16:11:22.497Z,9.57
2023-01-26T16:14:02.316Z,10.35
2023-01-26T16:16:33.488Z,9.27
2023-01-26T16:19:01.590Z,9.98
2023-01-26T16:21:33.255Z,10.80
2023-01-26T16:24:01.626Z,9.52
2023-01-26T16:26:30.875Z,10.98
2023-01-26T16:28:59.367Z,11.32
2023-01-26T16:31:31.076Z,10.95
2023-01-26T16:34:01.167Z,11.07
2023-01-26T16:36:29.185Z,9.80
2023-01-26T16:38:57.112Z,10.15
2023-01-26T16:41:27.396Z,12.40
2023-01-26T16:43:56.652Z,10.63
2023-01-26T16:46:24.838Z,12.23
2023-01-26T16:48:52.839Z,12.15
2023-01-26T16:51:26.642Z,16.83
2023-01-26T16:53:55.448Z,15.52
2023-01-26T16:56:24.631Z,13.75
2023-01-26T16:58:53.159Z,12.02
2023-01-26T17:01:23.391Z,18.40
2023-01-26T17:03:51.771Z,18.73
2023-01-26T17:06:21.782Z,13.95
2023-01-26T17:08:50.474Z,12.98
2023-01-26T17:11:20.584Z,12.88
2023-01-26T17:13:49.297Z,16.27
2023-01-26T17:16:19.194Z,14.70
2023-01-26T17:18:48.549Z,12.82
2023-01-26T17:21:18.645Z,12.68
2023-01-26T17:23:50.681Z,12.35
2023-01-26T17:26:20.157Z,15.13
2023-01-26T17:28:50.068Z,13.30
2023-01-26T17:31:20.045Z,14.45
2023-01-26T17:33:50.103Z,21.38
2023-01-26T17:36:19.700Z,13.32
2023-01-26T17:38:48.402Z,13.10
2023-01-26T17:41:18.000Z,14.75
2023-01-26T17:43:46.174Z,14.85
2023-01-26T17:46:15.981Z,12.65
2023-01-26T17:48:45.403Z,16.55
2023-01-26T17:51:16.584Z,16.25
2023-01-26T17:53:46.310Z,15.68
2023-01-26T17:56:18.612Z,11.70
2023-01-26T17:58:49.759Z,13.23
2023-01-26T18:01:18.193Z,13.65
2023-01-26T18:03:46.193Z,13.63
2023-01-26T18:06:14.246Z,16.38
2023-01-26T18:08:42.583Z,14.23
2023-01-26T18:11:13.009Z,12.13
2023-01-26T18:13:43.559Z,13.75
2023-01-26T18:16:15.932Z,12.10
2023-01-26T18:18:44.365Z,17.02
2023-01-26T18:21:14.357Z,13.32
2023-01-26T18:23:45.386Z,13.70
2023-01-26T18:26:13.413Z,14.27
2023-01-26T18:28:43.306Z,13.05
2023-01-26T18:31:12.626Z,15.45
2023-01-26T18:33:41.201Z,12.77
2023-01-26T18:36:11.968Z,14.57
2023-01-26T18:38:40.252Z,14.57
2023-01-26T18:41:12.201Z,12.90
2023-01-26T18:43:42.417Z,17.35
2023-01-26T18:46:11.747Z,22.45
2023-01-26T18:48:39.895Z,21.40
2023-01-26T18:51:08.650Z,53.63
2023-01-26T18:53:38.556Z,27.55
2023-01-26T18:56:08.710Z,20.02
2023-01-26T18:58:37.781Z,26.80
2023-01-26T19:01:10.599Z,26.02
2023-01-26T19:03:39.906Z,16.90
2023-01-26T19:06:09.022Z,28.02
2023-01-26T19:08:37.239Z,17.33
2023-01-26T19:11:05.939Z,20.10
2023-01-26T19:13:34.412Z,20.17
2023-01-26T19:16:02.528Z,16.65
2023-01-26T19:18:31.926Z,19.55
2023-01-26T19:21:01.398Z,18.90
2023-01-26T19:23:29.870Z,17.00
2023-01-26T19:25:58.125Z,16.77
2023-01-26T19:28:26.280Z,17.08
2023-01-26T19:31:03.237Z,15.35
2023-01-26T19:33:32.667Z,18.13
2023-01-26T19:36:03.681Z,16.02
2023-01-26T19:38:33.067Z,17.02
2023-01-26T19:41:02.462Z,17.65
2023-01-26T19:43:30.406Z,14.25
2023-01-26T19:45:58.514Z,14.90
2023-01-26T19:48:28.271Z,13.95
2023-01-26T19:51:03.234Z,19.63
2023-01-26T19:53:32.157Z,17.85
2023-01-26T19:56:00.903Z,17.25
2023-01-26T19:58:29.358Z,18.23
2023-01-26T20:01:01.267Z,18.80
2023-01-26T20:03:29.265Z,18.58
2023-01-26T20:05:57.370Z,18.58
2023-01-26T20:08:28.131Z,20.92
2023-01-26T20:11:02.641Z,18.55
2023-01-26T20:13:30.909Z,17.10
2023-01-26T20:15:58.892Z,17.25
2023-01-26T20:18:27.080Z,16.30
2023-01-26T20:20:56.309Z,16.80
2023-01-26T20:23:26.025Z,15.48
2023-01-26T20:26:01.006Z,15.05
2023-01-26T20:28:28.977Z,15.27
2023-01-26T20:30:59.768Z,15.15
2023-01-26T20:33:27.900Z,17.77
2023-01-26T20:35:56.386Z,16.85
2023-01-26T20:38:25.692Z,16.23
2023-01-26T20:40:53.739Z,15.63
2023-01-26T20:43:21.803Z,19.42
2023-01-26T20:45:49.916Z,20.38
2023-01-26T20:48:17.967Z,19.35
2023-01-26T20:50:45.913Z,16.67
2023-01-26T20:53:13.872Z,16.75
2023-01-26T20:55:43.440Z,16.13
2023-01-26T20:58:11.923Z,18.95
2023-01-26T21:00:39.877Z,20.00
2023-01-26T21:03:07.979Z,15.20
2023-01-26T21:05:41.999Z,16.92
2023-01-26T21:08:10.395Z,13.93
2023-01-26T21:10:38.432Z,16.95
2023-01-26T21:13:07.760Z,15.80
2023-01-26T21:15:35.794Z,15.95
2023-01-26T21:18:04.067Z,15.85
2023-01-26T21:20:32.140Z,14.23
2023-01-26T21:23:00.645Z,15.40
2023-01-26T21:25:28.687Z,14.45
2023-01-26T21:27:56.651Z,17.25
2023-01-26T21:30:25.980Z,16.88
2023-01-26T21:32:53.962Z,15.77
2023-01-26T21:35:22.090Z,15.60
2023-01-26T21:37:50.062Z,15.18
2023-01-26T21:40:18.479Z,20.90
2023-01-26T21:42:46.578Z,16.95
2023-01-26T21:45:31.979Z,18.70
2023-01-26T21:48:27.308Z,17.85
2023-01-26T21:51:13.768Z,16.85
2023-01-26T21:53:41.765Z,18.83
2023-01-26T21:56:10.090Z,16.50
2023-01-26T21:58:57.680Z,18.50
2023-01-26T22:01:26.160Z,18.20
2023-01-26T22:03:57.490Z,15.30
2023-01-26T22:06:26.064Z,17.02
2023-01-26T22:08:54.493Z,16.02
2023-01-26T22:11:22.701Z,18.80
2023-01-26T22:13:50.707Z,19.95
2023-01-26T22:16:19.127Z,22.13
2023-01-26T22:18:48.535Z,19.13
2023-01-26T22:21:18.869Z,17.92
2023-01-26T22:23:47.303Z,17.25
2023-01-26T22:26:19.445Z,19.55
2023-01-26T22:28:51.980Z,19.88
2023-01-26T22:31:22.565Z,23.25
2023-01-26T22:33:51.376Z,18.70
2023-01-26T22:36:21.350Z,17.92
2023-01-26T22:38:52.038Z,21.00
2023-01-26T22:41:22.067Z,19.02
2023-01-26T22:43:51.252Z,17.42
2023-01-26T22:46:20.408Z,19.65
2023-01-26T22:48:48.945Z,22.08
2023-01-26T22:51:19.118Z,17.00
2023-01-26T22:53:50.097Z,20.85
2023-01-26T22:56:18.668Z,19.33
2023-01-26T22:58:57.709Z,19.13
2023-01-26T23:01:26.694Z,20.73
2023-01-26T23:03:55.950Z,17.40
2023-01-26T23:06:24.743Z,25.77
2023-01-26T23:08:54.469Z,29.67
2023-01-26T23:11:24.584Z,18.92
2023-01-26T23:13:54.243Z,16.40
2023-01-26T23:16:23.569Z,16.85
2023-01-26T23:18:52.152Z,16.20
2023-01-26T23:21:20.477Z,20.92
2023-01-26T23:23:48.574Z,17.83
2023-01-26T23:26:18.120Z,20.40
2023-01-26T23:28:46.376Z,17.70
2023-01-26T23:31:16.470Z,19.75
2023-01-26T23:33:44.739Z,21.02
2023-01-26T23:36:15.148Z,19.13
2023-01-26T23:38:44.332Z,20.20
2023-01-26T23:41:12.480Z,18.08
2023-01-26T23:43:41.992Z,23.05
2023-01-26T23:46:11.594Z,18.90
2023-01-26T23:48:40.068Z,19.27
2023-01-26T23:51:10.103Z,20.25
2023-01-26T23:53:38.641Z,18.85
2023-01-26T23:56:09.684Z,20.25
2023-01-26T23:58:37.996Z,20.60
